createdAt,value
2023-03-05T00:00:17.737Z,74.00
2023-03-05T00:01:33.527Z,74.12
2023-03-05T00:02:40.056Z,74.40
2023-03-05T00:03:47.254Z,74.38
2023-03-05T00:04:51.026Z,74.39
2023-03-05T00:05:57.917Z,74.41
2023-03-05T00:07:01.441Z,74.70
2023-03-05T00:08:12.039Z,74.45
2023-03-05T00:09:16.775Z,74.60
2023-03-05T00:10:22.176Z,74.95
2023-03-05T00:11:30.330Z,74.40
2023-03-05T00:12:34.191Z,74.40
2023-03-05T00:13:39.145Z,74.18
2023-03-05T00:14:42.823Z,74.18
2023-03-05T00:15:49.458Z,74.22
2023-03-05T00:16:53.474Z,74.00
2023-03-05T00:17:57.141Z,73.24
2023-03-05T00:19:02.177Z,73.95
2023-03-05T00:20:12.001Z,73.92
2023-03-05T00:21:32.501Z,73.43
2023-03-05T00:22:36.901Z,72.89
2023-03-05T00:23:40.473Z,71.53
2023-03-05T00:24:44.390Z,71.23
2023-03-05T00:25:48.357Z,70.97
2023-03-05T00:26:53.353Z,71.10
2023-03-05T00:27:57.079Z,70.96
2023-03-05T00:29:01.302Z,70.50
2023-03-05T00:30:10.612Z,69.92
2023-03-05T00:31:14.187Z,70.42
2023-03-05T00:32:19.061Z,70.18
2023-03-05T00:33:22.959Z,69.92
2023-03-05T00:34:28.328Z,69.73
2023-03-05T00:35:34.135Z,69.04
2023-03-05T00:36:48.677Z,67.94
2023-03-05T00:37:53.025Z,66.43
2023-03-05T00:38:58.497Z,67.25
2023-03-05T00:40:02.982Z,67.17
2023-03-05T00:41:09.502Z,66.33
2023-03-05T00:42:13.738Z,65.79
2023-03-05T00:43:17.698Z,66.39
2023-03-05T00:44:21.705Z,65.00
2023-03-05T00:45:25.611Z,64.21
2023-03-05T00:46:29.492Z,64.08
2023-03-05T00:47:34.129Z,63.59
2023-03-05T00:48:38.017Z,63.30
2023-03-05T00:49:41.543Z,63.86
2023-03-05T00:50:48.795Z,63.23
2023-03-05T00:51:52.978Z,62.99
2023-03-05T00:52:56.949Z,63.25
2023-03-05T00:54:00.877Z,62.48
2023-03-05T00:55:12.657Z,62.83
2023-03-05T00:56:16.779Z,62.72
2023-03-05T00:57:20.728Z,62.60
2023-03-05T00:58:24.992Z,62.95
2023-03-05T00:59:29.394Z,62.87
2023-03-05T01:00:33.154Z,63.00
2023-03-05T01:01:37.632Z,63.13
2023-03-05T01:02:41.744Z,62.30
2023-03-05T01:03:45.499Z,62.77
2023-03-05T01:04:49.520Z,62.75
2023-03-05T01:05:53.218Z,62.19
2023-03-05T01:06:57.433Z,61.31
2023-03-05T01:08:03.070Z,61.92
2023-03-05T01:09:11.633Z,62.50
2023-03-05T01:10:15.604Z,62.27
2023-03-05T01:11:19.410Z,62.57
2023-03-05T01:12:23.718Z,62.35
2023-03-05T01:13:27.580Z,62.17
2023-03-05T01:14:31.292Z,62.86
2023-03-05T01:15:35.547Z,62.79
2023-03-05T01:16:39.487Z,62.53
2023-03-05T01:17:43.091Z,62.57
2023-03-05T01:18:46.972Z,62.46
2023-03-05T01:19:50.574Z,62.19
2023-03-05T01:20:54.713Z,62.72
2023-03-05T01:21:59.278Z,62.63
2023-03-05T01:23:03.072Z,62.84
2023-03-05T01:24:11.695Z,63.04
2023-03-05T01:25:19.482Z,62.86
2023-03-05T01:26:23.580Z,62.86
2023-03-05T01:27:28.349Z,63.28
2023-03-05T01:28:32.863Z,63.40
2023-03-05T01:29:37.941Z,63.40
2023-03-05T01:30:44.447Z,63.53
2023-03-05T01:31:48.642Z,63.46
2023-03-05T01:32:52.555Z,62.85
2023-03-05T01:33:56.356Z,62.21
2023-03-05T01:35:02.863Z,62.13
2023-03-05T01:36:17.002Z,60.35
2023-03-05T01:37:21.089Z,60.02
2023-03-05T01:38:25.038Z,61.24
2023-03-05T01:39:31.205Z,60.64
2023-03-05T01:40:35.195Z,60.19
2023-03-05T01:41:38.841Z,59.42
2023-03-05T01:42:59.290Z,58.96
2023-03-05T01:44:03.030Z,58.84
2023-03-05T01:45:16.209Z,58.27
2023-03-05T01:46:37.500Z,58.51
2023-03-05T01:47:41.449Z,57.35
2023-03-05T01:48:53.226Z,56.60
2023-03-05T01:49:57.993Z,57.62
2023-03-05T01:51:01.624Z,57.38
2023-03-05T01:52:21.817Z,56.97
2023-03-05T01:53:25.510Z,56.68
2023-03-05T01:54:48.302Z,56.96
2023-03-05T01:55:51.938Z,56.90
2023-03-05T01:57:02.426Z,57.11
2023-03-05T01:58:13.677Z,57.26
2023-03-05T01:59:19.122Z,56.72
2023-03-05T02:00:48.090Z,56.52
2023-03-05T02:01:58.523Z,56.25
2023-03-05T02:03:18.813Z,55.96
2023-03-05T02:04:33.263Z,56.26
2023-03-05T02:05:45.484Z,56.77
2023-03-05T02:06:51.007Z,56.32
2023-03-05T02:07:59.379Z,56.31
2023-03-05T02:09:03.512Z,56.44
2023-03-05T02:11:01.705Z,55.97
2023-03-05T02:12:13.041Z,55.91
2023-03-05T02:13:26.144Z,55.81
2023-03-05T02:14:30.309Z,55.30
2023-03-05T02:15:36.008Z,55.73
2023-03-05T02:16:40.238Z,55.29
2023-03-05T02:17:44.960Z,54.22
2023-03-05T02:18:51.151Z,55.01
2023-03-05T02:20:06.158Z,54.87
2023-03-05T02:21:12.593Z,54.72
2023-03-05T02:22:20.583Z,54.89
2023-03-05T02:23:36.999Z,54.34
2023-03-05T02:24:41.371Z,53.08
2023-03-05T02:25:45.874Z,54.17
2023-03-05T02:26:49.811Z,53.60
2023-03-05T02:28:04.564Z,53.44
2023-03-05T02:29:18.817Z,52.94
2023-03-05T02:30:23.018Z,53.18
2023-03-05T02:31:27.978Z,53.38
2023-03-05T02:32:31.926Z,53.83
2023-03-05T02:33:39.130Z,53.48
2023-03-05T02:34:43.712Z,53.88
2023-03-05T02:35:47.433Z,53.70
2023-03-05T02:36:56.848Z,52.89
2023-03-05T02:38:01.706Z,52.37
2023-03-05T02:39:07.116Z,51.88
2023-03-05T02:40:13.296Z,51.60
2023-03-05T02:41:17.276Z,51.25
2023-03-05T02:42:21.863Z,50.99
2023-03-05T02:43:26.492Z,51.21
2023-03-05T02:44:30.695Z,51.28
2023-03-05T02:45:34.513Z,51.06
2023-03-05T02:46:38.560Z,51.62
2023-03-05T02:47:42.680Z,51.76
2023-03-05T02:48:46.197Z,51.53
2023-03-05T02:49:50.364Z,50.92
2023-03-05T02:50:55.469Z,50.58
2023-03-05T02:51:59.090Z,51.12
2023-03-05T02:53:02.707Z,51.17
2023-03-05T02:54:15.810Z,50.72
2023-03-05T02:55:20.878Z,50.55
2023-03-05T02:56:24.725Z,50.63
2023-03-05T02:57:28.937Z,50.31
2023-03-05T02:58:32.668Z,49.84
2023-03-05T02:59:36.510Z,49.40
2023-03-05T03:01:57.481Z,48.87
2023-03-05T03:03:12.349Z,49.77
2023-03-05T03:04:26.264Z,49.43
2023-03-05T03:05:48.030Z,49.71
2023-03-05T03:06:52.115Z,49.48
2023-03-05T03:07:55.731Z,49.75
2023-03-05T03:08:59.732Z,49.29
2023-03-05T03:10:14.293Z,47.88
2023-03-05T03:11:21.872Z,48.46
2023-03-05T03:12:25.905Z,48.81
2023-03-05T03:13:29.509Z,47.32
2023-03-05T03:14:39.252Z,47.59
2023-03-05T03:15:43.597Z,46.99
2023-03-05T03:16:48.460Z,47.85
2023-03-05T03:17:52.717Z,47.89
2023-03-05T03:18:56.725Z,47.56
2023-03-05T03:20:02.971Z,47.69
2023-03-05T03:21:09.623Z,48.21
2023-03-05T03:22:16.143Z,48.02
2023-03-05T03:23:19.744Z,48.33
2023-03-05T03:24:23.655Z,47.83
2023-03-05T03:25:27.692Z,48.43
2023-03-05T03:26:32.010Z,48.45
2023-03-05T03:27:36.226Z,48.36
2023-03-05T03:28:39.885Z,48.81
2023-03-05T03:29:43.496Z,48.66
2023-03-05T03:30:47.527Z,49.12
2023-03-05T03:31:52.211Z,49.07
2023-03-05T03:32:55.800Z,48.82
2023-03-05T03:33:59.497Z,48.92
2023-03-05T03:35:03.959Z,49.39
2023-03-05T03:36:10.925Z,49.44
2023-03-05T03:37:15.100Z,49.28
2023-03-05T03:38:18.795Z,49.69
2023-03-05T03:39:24.101Z,49.43
2023-03-05T03:40:27.693Z,48.97
2023-03-05T03:41:32.360Z,48.85
2023-03-05T03:42:36.013Z,48.22
2023-03-05T03:43:42.838Z,46.94
2023-03-05T03:44:47.143Z,46.72
2023-03-05T03:45:50.888Z,47.44
2023-03-05T03:46:55.143Z,47.44
2023-03-05T03:48:00.863Z,47.19
2023-03-05T03:49:23.913Z,47.57
2023-03-05T03:50:27.772Z,47.51
2023-03-05T03:51:44.215Z,47.39
2023-03-05T03:52:48.157Z,47.39
2023-03-05T03:53:52.823Z,47.25
2023-03-05T03:55:03.539Z,47.03
2023-03-05T03:56:09.074Z,46.94
2023-03-05T03:57:13.920Z,46.07
2023-03-05T03:58:17.703Z,46.75
2023-03-05T03:59:22.312Z,46.80
2023-03-05T04:00:26.225Z,46.55
2023-03-05T04:01:30.472Z,46.07
2023-03-05T04:02:34.889Z,46.56
2023-03-05T04:03:38.841Z,46.35
2023-03-05T04:04:42.777Z,46.38
2023-03-05T04:05:46.561Z,46.59
2023-03-05T04:06:50.190Z,46.55
2023-03-05T04:07:54.856Z,46.45
2023-03-05T04:08:59.129Z,46.53
2023-03-05T04:10:04.410Z,46.45
2023-03-05T04:11:13.766Z,46.39
2023-03-05T04:12:21.928Z,46.54
2023-03-05T04:13:26.810Z,46.57
2023-03-05T04:14:30.986Z,46.37
2023-03-05T04:15:35.402Z,46.43
2023-03-05T04:16:39.961Z,46.68
2023-03-05T04:17:43.681Z,46.70
2023-03-05T04:18:47.771Z,46.34
2023-03-05T04:19:51.502Z,46.43
2023-03-05T04:20:55.364Z,45.97
2023-03-05T04:21:59.777Z,46.86
2023-03-05T04:23:04.215Z,46.98
2023-03-05T04:24:11.920Z,47.09
2023-03-05T04:25:16.128Z,47.13
2023-03-05T04:26:19.980Z,47.64
2023-03-05T04:27:24.113Z,47.08
2023-03-05T04:28:28.117Z,47.55
2023-03-05T04:29:32.779Z,47.64
2023-03-05T04:30:37.346Z,47.63
2023-03-05T04:31:41.340Z,48.14
2023-03-05T04:32:45.145Z,48.01
2023-03-05T04:33:48.862Z,48.33
2023-03-05T04:34:52.560Z,48.30
2023-03-05T04:35:56.692Z,48.34
2023-03-05T04:37:00.473Z,48.24
2023-03-05T04:38:04.776Z,48.27
2023-03-05T04:39:10.304Z,48.82
2023-03-05T04:40:14.567Z,48.90
2023-03-05T04:41:18.452Z,48.56
2023-03-05T04:42:23.062Z,48.79
2023-03-05T04:43:27.337Z,49.20
2023-03-05T04:44:31.634Z,50.20
2023-03-05T04:45:35.334Z,50.03
2023-03-05T04:46:39.548Z,50.88
2023-03-05T04:47:44.253Z,51.27
2023-03-05T04:48:48.241Z,51.21
2023-03-05T04:49:52.128Z,51.77
2023-03-05T04:50:58.041Z,52.37
2023-03-05T04:52:01.990Z,54.34
2023-03-05T04:53:09.874Z,53.91
2023-03-05T04:54:13.679Z,53.65
2023-03-05T04:55:18.504Z,53.52
2023-03-05T04:56:22.443Z,54.20
2023-03-05T04:57:26.660Z,54.12
2023-03-05T04:58:30.725Z,54.85
2023-03-05T04:59:34.620Z,54.71
2023-03-05T05:00:39.098Z,55.16
2023-03-05T05:01:43.376Z,54.88
2023-03-05T05:02:51.127Z,55.02
2023-03-05T05:03:55.129Z,55.25
2023-03-05T05:04:58.944Z,55.34
2023-03-05T05:06:03.330Z,55.22
2023-03-05T05:07:09.112Z,55.54
2023-03-05T05:08:13.180Z,55.84
2023-03-05T05:09:17.179Z,55.54
2023-03-05T05:10:21.491Z,55.77
2023-03-05T05:11:25.627Z,55.89
2023-03-05T05:12:31.242Z,55.58
2023-03-05T05:13:35.497Z,55.68
2023-03-05T05:14:39.385Z,55.54
2023-03-05T05:15:42.944Z,55.85
2023-03-05T05:16:46.865Z,56.03
2023-03-05T05:17:50.879Z,56.26
2023-03-05T05:18:54.713Z,56.77
2023-03-05T05:19:58.469Z,57.32
2023-03-05T05:21:02.111Z,57.43
2023-03-05T05:22:07.199Z,57.37
2023-03-05T05:23:13.914Z,57.92
2023-03-05T05:24:17.847Z,57.84
2023-03-05T05:25:21.754Z,59.06
2023-03-05T05:26:26.317Z,58.55
2023-03-05T05:27:30.052Z,58.82
2023-03-05T05:28:35.861Z,58.70
2023-03-05T05:29:39.845Z,58.96
2023-03-05T05:30:43.715Z,59.10
2023-03-05T05:31:47.717Z,58.93
2023-03-05T05:32:51.528Z,60.05
2023-03-05T05:33:55.223Z,59.99
2023-03-05T05:35:00.416Z,60.36
2023-03-05T05:36:09.185Z,61.45
2023-03-05T05:37:13.029Z,61.32
2023-03-05T05:38:17.197Z,62.18
2023-03-05T05:39:20.914Z,61.72
2023-03-05T05:40:24.969Z,62.09
2023-03-05T05:41:28.836Z,62.25
2023-03-05T05:42:33.983Z,63.34
2023-03-05T05:43:40.772Z,63.33
2023-03-05T05:44:45.423Z,64.47
2023-03-05T05:45:49.604Z,64.24
2023-03-05T05:46:53.490Z,63.88
2023-03-05T05:47:57.205Z,64.29
2023-03-05T05:49:01.192Z,65.22
2023-03-05T05:50:09.651Z,65.92
2023-03-05T05:51:18.432Z,66.07
2023-03-05T05:52:23.399Z,66.36
2023-03-05T05:53:28.565Z,65.96
2023-03-05T05:54:34.860Z,66.18
2023-03-05T05:55:41.673Z,67.16
2023-03-05T05:56:45.622Z,66.81
2023-03-05T05:57:49.525Z,66.96
2023-03-05T05:58:53.866Z,68.10
2023-03-05T05:59:57.876Z,69.87
2023-03-05T06:01:02.748Z,68.54
2023-03-05T06:02:18.576Z,68.68
2023-03-05T06:03:22.373Z,68.46
2023-03-05T06:04:26.564Z,68.55
2023-03-05T06:05:30.649Z,68.95
2023-03-05T06:06:35.201Z,68.77
2023-03-05T06:07:41.446Z,70.09
2023-03-05T06:08:45.435Z,69.54
2023-03-05T06:09:49.185Z,69.13
2023-03-05T06:10:56.197Z,70.12
2023-03-05T06:11:59.887Z,71.82
2023-03-05T06:13:04.194Z,72.28
2023-03-05T06:14:13.282Z,72.40
2023-03-05T06:15:19.843Z,72.13
2023-03-05T06:16:26.265Z,71.62
2023-03-05T06:17:31.158Z,71.36
2023-03-05T06:18:35.767Z,71.07
2023-03-05T06:19:39.417Z,71.44
2023-03-05T06:20:43.027Z,71.61
2023-03-05T06:21:49.005Z,71.38
2023-03-05T06:22:52.657Z,70.81
2023-03-05T06:23:58.830Z,70.28
2023-03-05T06:25:02.950Z,70.29
2023-03-05T06:26:12.879Z,69.71
2023-03-05T06:27:17.066Z,69.45
2023-03-05T06:28:21.850Z,69.22
2023-03-05T06:29:26.381Z,68.84
2023-03-05T06:30:30.251Z,69.25
2023-03-05T06:31:36.770Z,69.03
2023-03-05T06:32:40.808Z,69.31
2023-03-05T06:33:45.557Z,69.29
2023-03-05T06:34:50.924Z,68.80
2023-03-05T06:35:54.789Z,68.82
2023-03-05T06:36:58.940Z,68.63
2023-03-05T06:38:02.604Z,68.71
2023-03-05T06:39:10.111Z,69.00
2023-03-05T06:40:15.767Z,69.17
2023-03-05T06:41:30.450Z,68.72
2023-03-05T06:42:35.335Z,68.64
2023-03-05T06:43:43.544Z,68.42
2023-03-05T06:44:48.414Z,68.72
2023-03-05T06:46:04.745Z,68.69
2023-03-05T06:47:11.991Z,68.78
2023-03-05T06:48:16.485Z,69.09
2023-03-05T06:49:20.603Z,69.01
2023-03-05T06:50:24.985Z,68.79
2023-03-05T06:51:36.751Z,68.56
2023-03-05T06:52:41.152Z,68.76
2023-03-05T06:53:47.242Z,69.14
2023-03-05T06:54:55.954Z,69.70
2023-03-05T06:56:01.702Z,69.37
2023-03-05T06:57:11.591Z,69.62
2023-03-05T06:58:15.329Z,69.56
2023-03-05T06:59:18.929Z,69.21
2023-03-05T07:00:24.883Z,69.64
2023-03-05T07:01:28.733Z,70.33
2023-03-05T07:02:32.883Z,70.26
2023-03-05T07:03:37.631Z,70.14
2023-03-05T07:04:41.776Z,70.08
2023-03-05T07:05:46.186Z,70.43
2023-03-05T07:06:49.942Z,70.66
2023-03-05T07:07:54.271Z,70.01
2023-03-05T07:09:01.492Z,70.60
2023-03-05T07:10:09.050Z,70.97
2023-03-05T07:11:18.021Z,71.03
2023-03-05T07:12:22.477Z,71.33
2023-03-05T07:13:28.165Z,71.75
2023-03-05T07:14:32.570Z,71.84
2023-03-05T07:15:40.460Z,72.04
2023-03-05T07:16:44.158Z,71.97
2023-03-05T07:17:49.196Z,72.24
2023-03-05T07:18:55.002Z,72.26
2023-03-05T07:19:58.919Z,72.59
2023-03-05T07:21:09.903Z,73.37
2023-03-05T07:22:13.798Z,73.81
2023-03-05T07:23:17.736Z,73.84
2023-03-05T07:24:21.498Z,73.66
2023-03-05T07:25:25.243Z,74.10
2023-03-05T07:26:33.700Z,74.99
2023-03-05T07:27:39.296Z,75.43
2023-03-05T07:28:44.273Z,74.98
2023-03-05T07:29:48.464Z,74.49
2023-03-05T07:31:04.779Z,74.86
2023-03-05T07:32:10.149Z,74.80
2023-03-05T07:33:13.788Z,74.39
2023-03-05T07:34:17.418Z,74.79
2023-03-05T07:35:21.315Z,75.08
2023-03-05T07:36:27.970Z,75.72
2023-03-05T07:37:35.217Z,75.75
2023-03-05T07:38:41.473Z,75.64
2023-03-05T07:39:47.129Z,75.80
2023-03-05T07:40:51.373Z,76.33
2023-03-05T07:41:55.093Z,75.82
2023-03-05T07:42:58.859Z,75.85
2023-03-05T07:44:02.708Z,75.74
2023-03-05T07:45:09.866Z,76.86
2023-03-05T07:46:17.710Z,76.51
2023-03-05T07:47:21.437Z,76.48
2023-03-05T07:48:25.869Z,76.02
2023-03-05T07:49:29.410Z,76.52
2023-03-05T07:50:33.564Z,76.41
2023-03-05T07:51:37.855Z,76.50
2023-03-05T07:52:41.470Z,77.02
2023-03-05T07:53:48.548Z,76.92
2023-03-05T07:54:52.289Z,77.64
2023-03-05T07:55:56.065Z,77.37
2023-03-05T07:57:00.223Z,77.33
2023-03-05T07:58:04.272Z,78.10
2023-03-05T07:59:13.490Z,77.40
2023-03-05T08:00:19.053Z,77.23
2023-03-05T08:01:22.990Z,76.77
2023-03-05T08:02:27.479Z,77.12
2023-03-05T08:03:31.438Z,76.92
2023-03-05T08:04:35.569Z,76.47
2023-03-05T08:05:42.421Z,76.47
2023-03-05T08:06:47.121Z,76.46
2023-03-05T08:07:51.165Z,76.55
2023-03-05T08:08:55.515Z,76.80
2023-03-05T08:09:59.205Z,76.68
2023-03-05T08:11:13.587Z,77.09
2023-03-05T08:12:18.174Z,77.03
2023-03-05T08:13:23.153Z,76.66
2023-03-05T08:14:27.016Z,76.56
2023-03-05T08:15:31.805Z,76.67
2023-03-05T08:16:35.505Z,76.84
2023-03-05T08:17:39.147Z,76.65
2023-03-05T08:18:43.617Z,76.94
2023-03-05T08:19:47.605Z,77.17
2023-03-05T08:20:51.207Z,77.15
2023-03-05T08:21:56.525Z,78.01
2023-03-05T08:23:00.183Z,78.06
2023-03-05T08:24:12.213Z,78.36
2023-03-05T08:25:16.416Z,78.96
2023-03-05T08:26:24.372Z,79.01
2023-03-05T08:27:28.476Z,78.67
2023-03-05T08:28:34.338Z,78.28
2023-03-05T08:29:38.524Z,78.24
2023-03-05T08:30:44.746Z,78.27
2023-03-05T08:31:49.898Z,78.28
2023-03-05T08:32:54.533Z,78.79
2023-03-05T08:34:01.707Z,78.79
2023-03-05T08:35:08.269Z,78.68
2023-03-05T08:36:12.163Z,78.89
2023-03-05T08:37:16.253Z,78.99
2023-03-05T08:38:21.203Z,78.67
2023-03-05T08:39:25.159Z,78.51
2023-03-05T08:40:29.000Z,77.98
2023-03-05T08:41:33.142Z,78.41
2023-03-05T08:42:36.809Z,78.50
2023-03-05T08:43:40.445Z,78.45
2023-03-05T08:44:44.196Z,78.26
2023-03-05T08:45:49.861Z,78.67
2023-03-05T08:46:53.729Z,78.75
2023-03-05T08:47:58.307Z,78.30
2023-03-05T08:49:01.986Z,78.32
2023-03-05T08:50:08.627Z,77.79
2023-03-05T08:51:20.699Z,77.63
2023-03-05T08:52:25.283Z,77.79
2023-03-05T08:53:28.847Z,77.60
2023-03-05T08:54:33.936Z,77.46
2023-03-05T08:55:38.286Z,77.47
2023-03-05T08:56:42.049Z,77.57
2023-03-05T08:57:45.831Z,77.44
2023-03-05T08:58:49.649Z,77.52
2023-03-05T08:59:53.418Z,77.90
2023-03-05T09:00:57.524Z,77.91
2023-03-05T09:02:03.047Z,77.47
2023-03-05T09:03:11.767Z,77.25
2023-03-05T09:04:16.062Z,77.21
2023-03-05T09:05:26.430Z,76.99
2023-03-05T09:06:30.474Z,76.76
2023-03-05T09:07:34.230Z,76.66
2023-03-05T09:08:38.592Z,76.90
2023-03-05T09:09:42.181Z,76.88
2023-03-05T09:10:46.450Z,76.99
2023-03-05T09:11:52.155Z,76.43
2023-03-05T09:12:56.737Z,76.49
2023-03-05T09:14:00.551Z,76.44
2023-03-05T09:15:11.873Z,75.72
2023-03-05T09:16:18.620Z,75.96
2023-03-05T09:17:23.789Z,75.99
2023-03-05T09:18:28.550Z,75.59
2023-03-05T09:19:32.268Z,75.74
2023-03-05T09:20:37.805Z,75.13
2023-03-05T09:21:42.712Z,74.87
2023-03-05T09:22:47.181Z,74.76
2023-03-05T09:23:51.328Z,74.65
2023-03-05T09:24:54.980Z,74.51
2023-03-05T09:25:58.647Z,74.21
2023-03-05T09:27:02.271Z,73.71
2023-03-05T09:28:08.932Z,73.52
2023-03-05T09:29:15.789Z,73.11
2023-03-05T09:30:20.600Z,72.62
2023-03-05T09:31:24.609Z,72.32
2023-03-05T09:32:31.739Z,72.13
2023-03-05T09:33:37.770Z,71.43
2023-03-05T09:34:42.386Z,71.25
2023-03-05T09:35:46.094Z,71.49
2023-03-05T09:36:50.436Z,71.60
2023-03-05T09:37:55.295Z,71.46
2023-03-05T09:38:59.600Z,71.26
2023-03-05T09:40:04.252Z,71.32
2023-03-05T09:41:47.498Z,71.09
2023-03-05T09:43:04.566Z,71.28
2023-03-05T09:44:18.281Z,71.50
2023-03-05T09:45:42.215Z,71.49
2023-03-05T09:47:16.280Z,70.72
2023-03-05T09:48:40.896Z,71.01
2023-03-05T09:49:58.555Z,71.24
2023-03-05T09:51:07.754Z,71.62
2023-03-05T09:53:09.162Z,71.29
2023-03-05T09:54:43.523Z,71.24
2023-03-05T09:55:54.189Z,71.58
2023-03-05T09:57:05.202Z,71.73
2023-03-05T09:58:34.217Z,71.82
2023-03-05T10:00:10.528Z,71.92
2023-03-05T10:01:27.447Z,71.76
2023-03-05T10:02:37.483Z,71.97
2023-03-05T10:04:13.439Z,71.71
2023-03-05T10:05:31.594Z,71.66
2023-03-05T10:07:10.204Z,72.00
2023-03-05T10:08:19.427Z,71.71
2023-03-05T10:09:52.173Z,72.13
2023-03-05T10:10:56.196Z,72.12
2023-03-05T10:12:39.179Z,72.14
2023-03-05T10:13:46.595Z,71.88
2023-03-05T10:14:50.597Z,71.39
2023-03-05T10:16:08.173Z,71.85
2023-03-05T10:17:55.416Z,72.16
2023-03-05T10:19:02.829Z,71.86
2023-03-05T10:20:34.918Z,71.34
2023-03-05T10:22:03.751Z,70.73
2023-03-05T10:23:38.798Z,70.79
2023-03-05T10:24:57.750Z,70.99
2023-03-05T10:26:54.666Z,71.06
2023-03-05T10:28:21.475Z,69.94
2023-03-05T10:30:12.746Z,69.22
2023-03-05T10:31:44.457Z,69.04
2023-03-05T10:33:23.318Z,68.96
2023-03-05T10:34:54.683Z,68.48
2023-03-05T10:36:36.290Z,68.56
2023-03-05T10:38:23.369Z,68.45
2023-03-05T10:39:47.492Z,68.59
2023-03-05T10:41:00.833Z,68.63
2023-03-05T10:42:36.765Z,68.35
2023-03-05T10:43:52.284Z,68.46
2023-03-05T10:45:09.895Z,68.33
2023-03-05T10:46:18.863Z,67.77
2023-03-05T10:47:55.723Z,67.45
2023-03-05T10:49:37.111Z,67.52
2023-03-05T10:50:56.826Z,67.31
2023-03-05T10:52:18.671Z,67.64
2023-03-05T10:53:32.130Z,68.52
2023-03-05T10:54:41.970Z,68.55
2023-03-05T10:55:45.519Z,68.76
2023-03-05T10:56:49.177Z,68.70
2023-03-05T10:57:53.208Z,68.59
2023-03-05T10:58:56.746Z,68.48
2023-03-05T11:00:08.390Z,68.27
2023-03-05T11:01:12.604Z,68.30
2023-03-05T11:02:17.876Z,68.15
2023-03-05T11:03:21.752Z,67.93
2023-03-05T11:04:38.350Z,67.75
2023-03-05T11:05:48.117Z,68.01
2023-03-05T11:06:52.418Z,67.93
2023-03-05T11:07:56.495Z,67.74
2023-03-05T11:09:32.622Z,68.03
2023-03-05T11:10:36.569Z,68.57
2023-03-05T11:11:40.472Z,68.31
2023-03-05T11:12:46.283Z,68.02
2023-03-05T11:14:07.483Z,68.16
2023-03-05T11:15:14.216Z,69.08
2023-03-05T11:16:25.191Z,69.60
2023-03-05T11:18:09.099Z,69.88
2023-03-05T11:19:30.173Z,70.87
2023-03-05T11:20:37.084Z,72.13
2023-03-05T11:21:43.475Z,72.35
2023-03-05T11:23:23.733Z,72.82
2023-03-05T11:24:27.336Z,73.35
2023-03-05T11:25:32.790Z,73.36
2023-03-05T11:26:36.736Z,73.81
2023-03-05T11:27:55.402Z,74.26
2023-03-05T11:29:03.658Z,75.03
2023-03-05T11:30:41.246Z,75.81
2023-03-05T11:31:44.929Z,76.20
2023-03-05T11:32:48.789Z,76.93
2023-03-05T11:34:01.145Z,77.70
2023-03-05T11:35:34.984Z,79.07
2023-03-05T11:36:58.857Z,79.51
2023-03-05T11:38:08.772Z,80.44
2023-03-05T11:39:22.669Z,80.53
2023-03-05T11:40:31.466Z,81.00
2023-03-05T11:41:59.357Z,82.25
2023-03-05T11:43:06.199Z,82.06
2023-03-05T11:44:22.652Z,82.84
2023-03-05T11:45:29.691Z,82.98
2023-03-05T11:46:43.585Z,83.16
2023-03-05T11:47:58.846Z,82.54
2023-03-05T11:49:06.596Z,82.82
2023-03-05T11:50:23.392Z,83.05
2023-03-05T11:51:57.725Z,83.38
2023-03-05T11:53:07.957Z,83.46
2023-03-05T11:54:25.216Z,83.74
2023-03-05T11:55:37.839Z,84.26
2023-03-05T11:56:45.975Z,84.05
2023-03-05T11:58:01.545Z,83.79
2023-03-05T11:59:23.684Z,84.05
2023-03-05T12:00:34.668Z,84.00
2023-03-05T12:01:54.252Z,84.36
2023-03-05T12:03:05.237Z,84.01
2023-03-05T12:04:12.820Z,83.78
2023-03-05T12:05:17.655Z,83.17
2023-03-05T12:06:51.832Z,83.68
2023-03-05T12:08:02.797Z,82.72
2023-03-05T12:09:37.952Z,81.81
2023-03-05T12:10:42.046Z,81.59
2023-03-05T12:11:50.845Z,80.89
2023-03-05T12:13:00.313Z,80.11
2023-03-05T12:14:36.723Z,78.71
2023-03-05T12:16:00.286Z,77.21
2023-03-05T12:17:31.725Z,76.33
2023-03-05T12:19:37.655Z,76.22
2023-03-05T12:21:13.006Z,75.55
2023-03-05T12:22:24.781Z,75.72
2023-03-05T12:23:28.766Z,75.42
2023-03-05T12:24:35.832Z,75.83
2023-03-05T12:26:01.327Z,75.53
2023-03-05T12:27:08.139Z,75.86
2023-03-05T12:28:32.095Z,75.92
2023-03-05T12:29:52.220Z,75.99
2023-03-05T12:31:40.513Z,76.00
2023-03-05T12:32:44.315Z,76.12
2023-03-05T12:33:48.321Z,75.92
2023-03-05T12:34:54.904Z,75.95
2023-03-05T12:36:23.487Z,75.82
2023-03-05T12:37:27.388Z,76.25
2023-03-05T12:38:33.836Z,76.19
2023-03-05T12:39:52.608Z,76.20
2023-03-05T12:41:33.038Z,76.67
2023-03-05T12:42:46.218Z,76.46
2023-03-05T12:44:11.746Z,75.82
2023-03-05T12:45:16.352Z,76.11
2023-03-05T12:46:29.474Z,76.26
2023-03-05T12:47:33.672Z,75.79
2023-03-05T12:48:44.496Z,76.06
2023-03-05T12:49:48.919Z,75.87
2023-03-05T12:50:58.954Z,75.36
2023-03-05T12:52:08.240Z,75.02
2023-03-05T12:53:19.335Z,75.08
2023-03-05T12:54:39.831Z,74.91
2023-03-05T12:56:22.474Z,75.42
2023-03-05T12:57:29.659Z,74.69
2023-03-05T12:59:06.697Z,74.16
2023-03-05T13:00:26.548Z,75.08
2023-03-05T13:02:03.284Z,74.06
2023-03-05T13:03:18.227Z,73.97
2023-03-05T13:04:32.055Z,73.85
2023-03-05T13:05:51.960Z,73.37
2023-03-05T13:07:20.057Z,73.09
2023-03-05T13:08:28.603Z,72.71
2023-03-05T13:09:36.719Z,73.18
2023-03-05T13:10:41.769Z,73.35
2023-03-05T13:11:52.315Z,73.04
2023-03-05T13:12:58.784Z,72.83
2023-03-05T13:14:03.139Z,73.01
2023-03-05T13:15:15.469Z,72.78
2023-03-05T13:16:36.809Z,72.40
2023-03-05T13:18:00.501Z,71.88
2023-03-05T13:19:15.463Z,71.92
2023-03-05T13:20:39.363Z,71.04
2023-03-05T13:21:43.610Z,70.40
2023-03-05T13:23:24.324Z,70.46
2023-03-05T13:24:29.370Z,70.57
2023-03-05T13:25:33.139Z,71.05
2023-03-05T13:26:41.300Z,70.91
2023-03-05T13:27:45.467Z,70.77
2023-03-05T13:29:22.122Z,71.67
2023-03-05T13:30:29.474Z,71.59
2023-03-05T13:31:37.432Z,72.05
2023-03-05T13:32:43.641Z,71.72
2023-03-05T13:33:57.185Z,70.92
2023-03-05T13:35:01.983Z,70.93
2023-03-05T13:36:15.584Z,70.60
2023-03-05T13:37:22.439Z,70.65
2023-03-05T13:38:37.317Z,70.72
2023-03-05T13:40:01.559Z,70.81
2023-03-05T13:41:11.626Z,70.44
2023-03-05T13:42:26.551Z,70.84
2023-03-05T13:43:30.649Z,71.22
2023-03-05T13:44:35.084Z,70.66
2023-03-05T13:45:40.225Z,70.72
2023-03-05T13:46:45.930Z,71.08
2023-03-05T13:48:03.149Z,70.96
2023-03-05T13:49:39.890Z,71.30
2023-03-05T13:50:43.793Z,73.04
2023-03-05T13:52:00.921Z,73.88
2023-03-05T13:53:29.116Z,73.74
2023-03-05T13:54:33.309Z,74.83
2023-03-05T13:55:38.949Z,74.99
2023-03-05T13:56:55.562Z,74.09
2023-03-05T13:57:59.354Z,74.07
2023-03-05T13:59:03.428Z,73.05
2023-03-05T14:00:35.199Z,72.18
2023-03-05T14:01:48.093Z,72.99
2023-03-05T14:02:56.132Z,71.65
2023-03-05T14:04:25.311Z,72.50
2023-03-05T14:05:31.580Z,72.14
2023-03-05T14:06:54.279Z,72.41
2023-03-05T14:07:59.819Z,72.11
2023-03-05T14:09:42.515Z,71.47
2023-03-05T14:10:46.366Z,71.23
2023-03-05T14:12:07.312Z,69.70
2023-03-05T14:13:19.776Z,68.84
2023-03-05T14:14:26.640Z,69.26
2023-03-05T14:15:34.227Z,68.90
2023-03-05T14:16:38.703Z,68.64
2023-03-05T14:17:45.602Z,67.83
2023-03-05T14:19:02.759Z,67.30
2023-03-05T14:20:27.907Z,67.49
2023-03-05T14:21:58.281Z,66.72
2023-03-05T14:23:34.791Z,67.36
2023-03-05T14:24:38.654Z,67.28
2023-03-05T14:25:42.727Z,66.27
2023-03-05T14:26:58.635Z,66.84
2023-03-05T14:28:26.403Z,65.93
2023-03-05T14:29:30.446Z,65.88
2023-03-05T14:30:36.387Z,66.21
2023-03-05T14:31:57.938Z,66.25
2023-03-05T14:33:03.690Z,65.46
2023-03-05T14:34:37.151Z,63.91
2023-03-05T14:35:49.133Z,62.07
2023-03-05T14:36:58.581Z,60.99
2023-03-05T14:38:03.105Z,60.10
2023-03-05T14:39:46.287Z,58.05
2023-03-05T14:40:54.577Z,57.86
2023-03-05T14:42:39.427Z,57.84
2023-03-05T14:43:43.127Z,58.25
2023-03-05T14:44:47.398Z,59.02
2023-03-05T14:45:51.284Z,59.04
2023-03-05T14:46:56.076Z,58.77
2023-03-05T14:48:03.841Z,56.97
2023-03-05T14:49:10.721Z,55.78
2023-03-05T14:50:27.785Z,54.91
2023-03-05T14:51:37.813Z,54.43
2023-03-05T14:52:45.037Z,54.66
2023-03-05T14:53:56.240Z,54.50